»·PEaware :: N182BL KONT-KSAN

N182BL :: KONT-KSAN

FLIGHT INFORMATION

Flight Status: Arrived
Operator: Privately registered:
United States
More flights under this callsign
Pilot: James D. (13710)
Aircraft: BEECH AIRCRAFT BARON
(BE58)
More flights by this aircraft type
Origin: KONT Ontario Intl
United States
Destination: KSAN San Diego Intl-Lindbergh
United States
More flights between these airports :: More routes between these airports
Route: +PDZ V186 HAILE V66 MZB
File this flight plan on PilotEdge
Remarks: TEC route ONTN12
Altitude:
(Current/Filed)
9,000ft
Speed:
(Current/Filed)
190kts
Departed: 12-Oct-17 11:25 AM
Arrived: 12-Oct-17 12:10 PM
Distance/Time
Traveled:
82nm/0:45
Distance/Time
To Go:
Arrived

Flight Plot

Page will automatically refresh every two minutes.


Map Options




Map Legend


Flown Route
Filed Route
Departure Airport
Arrival Airport
Navaid (VOR, NDB)
Fix

Horizontal Profiles

Position Reports

Time Latitude Longitude Heading Altitude Ground
Speed
12-Oct-17 11:04 34.051223 -117.602944 269 940ft 0kts
12-Oct-17 11:05 34.051223 -117.602944 269 940ft 0kts
12-Oct-17 11:06 34.051223 -117.602944 270 940ft 0kts
12-Oct-17 11:07 34.051223 -117.602944 270 940ft 0kts
12-Oct-17 11:08 34.051223 -117.602944 270 940ft 0kts
12-Oct-17 11:09 34.051223 -117.602944 270 940ft 0kts
12-Oct-17 11:10 34.051223 -117.602944 270 940ft 0kts
12-Oct-17 11:11 34.051223 -117.602944 270 940ft 0kts
12-Oct-17 11:12 34.051223 -117.602944 270 940ft 0kts
12-Oct-17 11:13 34.051223 -117.602944 270 940ft 0kts
12-Oct-17 11:14 34.051223 -117.602944 270 940ft 0kts
12-Oct-17 11:15 34.051223 -117.602944 270 940ft 0kts
12-Oct-17 11:16 34.051223 -117.602944 270 940ft 0kts
12-Oct-17 11:17 34.051223 -117.602944 270 940ft 0kts
12-Oct-17 11:18 34.051223 -117.602944 270 939ft 0kts
12-Oct-17 11:19 34.051223 -117.602944 270 939ft 0kts
12-Oct-17 11:20 34.051223 -117.602944 270 939ft 0kts
12-Oct-17 11:21 34.051224 -117.602969 272 939ft 2kts
12-Oct-17 11:22 34.051971 -117.603267 352 939ft 0kts
12-Oct-17 11:23 34.053856 -117.603113 91 939ft 13kts
12-Oct-17 11:24 34.053855 -117.595878 88 939ft 24kts
12-Oct-17 11:25 34.053863 -117.587877 88 939ft 23kts
12-Oct-17 11:26 34.054049 -117.582407 4 939ft 0kts
12-Oct-17 11:27 34.054049 -117.582407 4 939ft 0kts
12-Oct-17 11:28 34.054049 -117.582407 4 939ft 0kts
12-Oct-17 11:29 34.054049 -117.582407 4 939ft 0kts
12-Oct-17 11:30 34.054917 -117.596792 273 974ft 134kts
12-Oct-17 11:31 34.054200 -117.646912 270 2323ft 154kts
12-Oct-17 11:31 34.052784 -117.688036 270 3299ft 150kts
12-Oct-17 11:33 34.050956 -117.750289 270 3999ft 177kts
12-Oct-17 11:34 34.049562 -117.812303 270 3998ft 190kts
12-Oct-17 11:35 34.012729 -117.819456 113 4454ft 177kts
12-Oct-17 11:35 33.998302 -117.774400 108 5124ft 168kts
12-Oct-17 11:37 33.978870 -117.714521 109 6128ft 167kts
12-Oct-17 11:37 33.964702 -117.670912 109 6816ft 168kts
12-Oct-17 11:38 33.947676 -117.618342 109 7625ft 169kts
12-Oct-17 11:39 33.930668 -117.565659 109 8418ft 170kts
12-Oct-17 11:41 33.896263 -117.518618 140 8992ft 186kts
12-Oct-17 11:41 33.861774 -117.485754 140 8983ft 193kts
12-Oct-17 11:43 33.811705 -117.440566 143 8983ft 194kts
12-Oct-17 11:43 33.774719 -117.409506 143 8983ft 194kts
12-Oct-17 11:44 33.730393 -117.372310 143 8983ft 194kts
12-Oct-17 11:45 33.686745 -117.335784 144 8985ft 197kts
12-Oct-17 11:46 33.641725 -117.298188 144 8984ft 200kts
12-Oct-17 11:47 33.595931 -117.259932 144 8983ft 201kts
12-Oct-17 11:48 33.549962 -117.221560 144 8983ft 201kts
12-Oct-17 11:49 33.509937 -117.188186 144 8983ft 201kts
12-Oct-17 11:50 33.461315 -117.156139 166 8987ft 202kts
12-Oct-17 11:51 33.406260 -117.141841 168 8991ft 203kts
12-Oct-17 11:52 33.350896 -117.130152 170 8993ft 203kts
12-Oct-17 11:53 33.295207 -117.118824 169 8993ft 203kts
12-Oct-17 11:54 33.239860 -117.105597 167 8993ft 203kts
12-Oct-17 11:55 33.184779 -117.091294 168 8993ft 203kts
12-Oct-17 11:56 33.131344 -117.072039 152 8796ft 202kts
12-Oct-17 11:57 33.081162 -117.041688 152 8018ft 203kts
12-Oct-17 11:58 33.031731 -117.011791 152 7278ft 202kts
12-Oct-17 11:59 32.981835 -116.981647 152 6526ft 203kts
12-Oct-17 12:00 32.931849 -116.951476 152 5741ft 202kts
12-Oct-17 12:01 32.884127 -116.922694 152 5135ft 200kts
12-Oct-17 12:02 32.836705 -116.894068 151 4983ft 180kts
12-Oct-17 12:03 32.793174 -116.867906 151 4981ft 170kts
12-Oct-17 12:04 32.749558 -116.855341 196 4988ft 167kts
12-Oct-17 12:05 32.705694 -116.872741 199 4998ft 165kts
12-Oct-17 12:06 32.678851 -116.911836 252 4663ft 155kts
12-Oct-17 12:07 32.677180 -116.957780 288 3772ft 139kts
12-Oct-17 12:08 32.687319 -116.999652 289 2827ft 130kts
12-Oct-17 12:09 32.697637 -117.039622 292 2247ft 125kts
12-Oct-17 12:10 32.706636 -117.079297 290 1993ft 131kts
12-Oct-17 12:11 32.715953 -117.121492 288 1256ft 120kts
12-Oct-17 12:12 32.725463 -117.156756 288 587ft 108kts
12-Oct-17 12:13 32.733449 -117.189088 285 16ft 58kts
12-Oct-17 12:14 32.734089 -117.194892 187 16ft 0kts
12-Oct-17 12:15 32.732517 -117.194189 167 15ft 14kts
12-Oct-17 12:16 32.732352 -117.193900 105 16ft 0kts

Navigation Log

Ident Type
1. KONT Airport
2. PDZ Navaid
3. NIKKL Fix
4. WESIN Fix
5. TANNR Fix
6. DEGLE Fix
7. ROBNN Fix
8. HAILE Fix
9. MZB Navaid
10. KSAN Airport